Aviation Digital Data Service (ADDS)

Output produced by METARs form (0433 UTC 28 July 2017)
found at http://www.aviationweather.gov/adds/metars/
 
KPAE 280353Z AUTO 33007KT 10SM SCT023 14/11 A3012 RMK AO2 SLP198 T01440106
KPAE 272321Z 2800/2824 24006KT P6SM OVC023 
     FM280200 36005KT P6SM SCT030 
     FM280900 01003KT P6SM FEW015 BKN040 
     FM281300 VRB03KT P6SM BKN015 BKN040 
     FM281800 31006KT P6SM SCT040
       
KAWO 280356Z AUTO 31008KT 10SM OVC024 17/12 A3011 RMK AO2 SLP201 T01670117
KBFI 280353Z 31004KT 10SM CLR 18/13 A3009 RMK AO2 SLP189 T01830133
KBFI 272321Z 2800/2824 VRB03KT P6SM SCT030 
     FM280200 30005KT P6SM FEW040 
     FM280900 VRB03KT P6SM FEW025 BKN040 
     FM281300 VRB03KT P6SM BKN025 BKN040 
     FM281800 29006KT P6SM SCT040
       
KRNT 280353Z 29005KT 10SM CLR 19/13 A3009 RMK AO2 SLP193 T01940133
KSEA 280353Z 32004KT 10SM FEW029 18/13 A3010 RMK AO2 SLP199 T01780128
KSEA 280301Z 2803/2906 33005KT P6SM FEW030 
     FM280900 02004KT P6SM SCT020 BKN040 
     FM281200 VRB03KT P6SM BKN020 OVC040 
     FM281800 30006KT P6SM SCT040